Time;durP1;ratioP1;P1;durP2;ratioP2;P2;SDS_P1;SDS_P2;PMS_P1;PMS_P2;Temp;Humidity;BMP_temperature;BMP_pressure;BME280_temperature;BME280_humidity;BME280_pressure;Samples;Min_cycle;Max_cycle;Signal;HPM_P1;HPM_P2
2021/09/22 00:02:08;;;;;;;1.48;1.38;;;19.20;74.90;;;;;;5092470;28;20059;-59
2021/09/22 00:04:35;;;;;;;1.50;1.35;;;19.20;74.90;;;;;;5092160;28;20051;-57
2021/09/22 00:07:00;;;;;;;1.70;1.42;;;19.30;75.00;;;;;;5092427;28;20050;-59
2021/09/22 00:09:27;;;;;;;1.70;1.50;;;19.20;74.90;;;;;;5091931;28;20178;-59
2021/09/22 00:11:52;;;;;;;1.75;1.33;;;19.20;74.90;;;;;;5091901;28;20480;-59
2021/09/22 00:14:18;;;;;;;1.70;1.30;;;19.30;75.00;;;;;;5091470;28;20123;-60
2021/09/22 00:16:44;;;;;;;1.42;1.33;;;19.30;75.00;;;;;;5091691;28;20092;-60
2021/09/22 00:19:09;;;;;;;1.35;1.20;;;19.20;75.00;;;;;;5091605;28;20036;-58
2021/09/22 00:21:35;;;;;;;1.40;1.30;;;19.20;74.90;;;;;;5092131;28;20036;-59
2021/09/22 00:24:01;;;;;;;1.40;1.30;;;19.20;74.90;;;;;;5092122;28;20480;-58
2021/09/22 00:26:27;;;;;;;1.35;1.25;;;19.20;74.90;;;;;;5091751;28;20173;-59
2021/09/22 00:28:53;;;;;;;1.35;1.23;;;19.20;74.90;;;;;;5091609;28;20063;-60
2021/09/22 00:31:19;;;;;;;1.45;1.30;;;19.30;75.00;;;;;;5091877;28;20040;-59
2021/09/22 00:33:45;;;;;;;1.30;1.20;;;19.20;74.90;;;;;;5092039;28;20036;-59
2021/09/22 00:36:11;;;;;;;2.35;1.45;;;19.20;74.90;;;;;;5091825;28;20040;-59
2021/09/22 00:38:36;;;;;;;1.88;1.33;;;19.20;74.90;;;;;;5092253;28;20488;-59
2021/09/22 00:41:02;;;;;;;1.58;1.48;;;19.30;75.00;;;;;;5091826;28;20040;-59
2021/09/22 00:43:28;;;;;;;1.70;1.50;;;19.20;74.90;;;;;;5090421;28;20494;-57
2021/09/22 00:45:54;;;;;;;1.52;1.42;;;19.20;74.90;;;;;;5091970;28;20119;-59
2021/09/22 00:48:21;;;;;;;1.17;1.08;;;19.20;75.50;;;;;;5091665;28;20044;-59
2021/09/22 00:50:49;;;;;;;1.33;1.23;;;19.20;74.90;;;;;;5092168;28;20048;-59
2021/09/22 00:53:16;;;;;;;1.35;1.25;;;19.20;74.90;;;;;;5073968;28;20123;-59
2021/09/22 00:55:44;;;;;;;1.58;1.40;;;19.30;75.00;;;;;;5092008;28;20476;-57
2021/09/22 00:58:10;;;;;;;1.45;1.35;;;19.20;74.90;;;;;;5091403;28;20123;-59
2021/09/22 01:00:37;;;;;;;1.40;1.30;;;19.20;74.90;;;;;;5091733;28;20568;-59
2021/09/22 01:03:04;;;;;;;1.48;1.38;;;19.20;74.90;;;;;;5091909;28;20116;-60
2021/09/22 01:05:30;;;;;;;1.48;1.38;;;19.20;74.90;;;;;;5091561;28;20111;-59
2021/09/22 01:07:57;;;;;;;1.75;1.65;;;19.30;75.00;;;;;;5090368;28;20046;-57
2021/09/22 01:10:22;;;;;;;1.40;1.30;;;19.20;74.90;;;;;;5091412;28;20119;-57
2021/09/22 01:12:48;;;;;;;1.23;1.10;;;19.20;74.90;;;;;;5091431;28;20502;-59
2021/09/22 01:15:30;;;;;;;1.67;1.45;;;19.20;74.90;;;;;;5091248;28;20143;-55
2021/09/22 01:17:57;;;;;;;1.48;1.38;;;19.20;75.00;;;;;;5090046;28;20063;-57
2021/09/22 01:20:26;;;;;;;1.65;1.52;;;19.20;74.90;;;;;;5091828;28;20048;-59
2021/09/22 01:22:52;;;;;;;1.50;1.23;;;19.20;74.90;;;;;;5091753;28;20448;-58
2021/09/22 01:25:18;;;;;;;1.50;1.30;;;19.20;74.90;;;;;;5092805;28;20040;-59
2021/09/22 01:27:52;;;;;;;1.45;1.30;;;19.20;74.90;;;;;;5095486;28;20039;-58
2021/09/22 01:30:19;;;;;;;1.85;1.30;;;19.20;74.90;;;;;;5094122;28;20222;-58
2021/09/22 01:33:09;;;;;;;1.30;1.20;;;19.20;74.90;;;;;;5094259;28;20055;-56
2021/09/22 01:35:37;;;;;;;1.65;1.55;;;19.20;75.10;;;;;;5072276;28;20052;-57
2021/09/22 01:38:09;;;;;;;1.50;1.40;;;19.20;74.90;;;;;;5072631;28;20139;-59
2021/09/22 01:40:35;;;;;;;1.60;1.50;;;19.20;74.90;;;;;;5072194;28;20064;-59
2021/09/22 01:43:01;;;;;;;1.20;1.10;;;19.20;74.90;;;;;;5072320;28;20044;-59
2021/09/22 01:45:27;;;;;;;1.42;1.33;;;19.20;74.90;;;;;;5071709;28;20040;-59
2021/09/22 01:47:53;;;;;;;1.55;1.40;;;19.20;75.50;;;;;;5071960;28;20063;-59
2021/09/22 01:50:20;;;;;;;1.48;1.38;;;19.20;74.90;;;;;;5071625;28;20045;-59
2021/09/22 01:52:49;;;;;;;1.58;1.40;;;19.20;74.90;;;;;;5072317;28;20075;-58
2021/09/22 01:55:18;;;;;;;1.52;1.42;;;19.20;74.90;;;;;;5071772;28;20477;-59
2021/09/22 01:57:43;;;;;;;1.50;1.40;;;19.20;74.90;;;;;;5051868;28;20088;-59
2021/09/22 02:00:09;;;;;;;1.50;1.40;;;19.20;74.80;;;;;;5052361;28;20060;-59
2021/09/22 02:02:35;;;;;;;1.25;1.10;;;19.20;74.80;;;;;;5070383;28;20370;-59
2021/09/22 02:05:01;;;;;;;1.35;1.25;;;19.20;74.80;;;;;;5071857;28;20048;-59
2021/09/22 02:07:27;;;;;;;1.33;1.20;;;19.20;74.80;;;;;;5072252;28;20116;-59
2021/09/22 02:09:53;;;;;;;1.40;1.30;;;19.20;74.80;;;;;;5054562;28;20129;-60
2021/09/22 02:12:19;;;;;;;1.33;1.23;;;19.20;74.80;;;;;;5077102;28;20044;-60
2021/09/22 02:14:44;;;;;;;1.30;1.20;;;19.20;74.80;;;;;;5094685;28;20484;-59
2021/09/22 02:17:10;;;;;;;1.20;1.10;;;19.20;74.90;;;;;;5093736;28;20128;-57
2021/09/22 02:19:36;;;;;;;1.52;1.10;;;19.20;74.80;;;;;;5085470;28;20059;-59
2021/09/22 02:22:02;;;;;;;1.50;1.40;;;19.20;75.50;;;;;;5093781;28;20036;-60
2021/09/22 02:24:28;;;;;;;1.50;1.38;;;19.20;74.90;;;;;;5093593;28;20498;-59
2021/09/22 02:26:54;;;;;;;1.88;1.40;;;19.20;74.80;;;;;;5094204;28;20051;-59
2021/09/22 02:29:20;;;;;;;2.15;1.35;;;19.20;74.80;;;;;;5093579;28;20465;-59
2021/09/22 02:31:47;;;;;;;1.40;1.30;;;19.20;74.80;;;;;;5093692;28;20051;-59
2021/09/22 02:34:14;;;;;;;1.40;1.27;;;19.20;74.80;;;;;;5093774;28;20391;-59
2021/09/22 02:36:41;;;;;;;1.35;1.25;;;19.20;74.80;;;;;;5093471;28;20055;-60
2021/09/22 02:39:08;;;;;;;1.45;1.35;;;19.20;74.80;;;;;;5092762;28;20121;-58
2021/09/22 02:41:34;;;;;;;1.08;0.98;;;19.20;74.80;;;;;;5094126;28;20044;-59
2021/09/22 02:44:00;;;;;;;1.45;1.35;;;19.20;74.80;;;;;;5093735;28;20115;-59
2021/09/22 02:46:27;;;;;;;1.42;1.33;;;19.20;74.80;;;;;;5094019;28;20047;-59
2021/09/22 02:48:53;;;;;;;1.55;1.15;;;19.20;74.80;;;;;;5093078;28;20043;-59
2021/09/22 02:51:19;;;;;;;1.63;1.30;;;19.20;74.80;;;;;;5093423;28;20127;-60
2021/09/22 02:53:45;;;;;;;1.27;1.17;;;19.20;74.80;;;;;;5093757;28;20044;-59
2021/09/22 02:56:10;;;;;;;1.38;1.17;;;19.20;74.90;;;;;;5093850;28;20396;-59
2021/09/22 02:58:36;;;;;;;1.55;1.38;;;19.20;74.90;;;;;;5092593;28;20051;-59
2021/09/22 03:01:03;;;;;;;1.48;1.30;;;19.20;74.80;;;;;;5093603;28;20404;-59
2021/09/22 03:03:31;;;;;;;1.40;1.30;;;19.20;74.80;;;;;;5093918;28;20035;-59
2021/09/22 03:05:57;;;;;;;1.23;1.13;;;19.20;74.80;;;;;;5092653;28;20052;-59
2021/09/22 03:08:23;;;;;;;1.42;1.30;;;19.20;74.80;;;;;;5092711;28;20444;-58
2021/09/22 03:10:48;;;;;;;1.05;1.00;;;19.20;74.80;;;;;;5092950;28;20036;-54
2021/09/22 03:13:14;;;;;;;1.42;1.33;;;19.20;74.90;;;;;;5093280;28;20139;-59
2021/09/22 03:15:40;;;;;;;1.38;1.27;;;19.20;74.90;;;;;;5092743;28;20056;-57
2021/09/22 03:18:06;;;;;;;1.42;1.33;;;19.20;74.80;;;;;;5092729;28;20109;-58
2021/09/22 03:20:31;;;;;;;1.27;1.17;;;19.20;74.80;;;;;;5092849;28;20222;-59
2021/09/22 03:22:57;;;;;;;1.45;1.35;;;19.20;74.80;;;;;;5092690;28;20036;-59
2021/09/22 03:25:23;;;;;;;1.75;1.23;;;19.20;74.80;;;;;;5092947;28;20051;-60
2021/09/22 03:27:49;;;;;;;2.00;1.40;;;19.20;74.80;;;;;;5093287;28;20470;-59
2021/09/22 03:30:16;;;;;;;1.63;1.52;;;19.20;74.80;;;;;;5091157;28;20501;-58
2021/09/22 03:32:42;;;;;;;1.30;1.20;;;19.20;74.80;;;;;;5092462;28;20499;-59
2021/09/22 03:35:08;;;;;;;1.30;1.20;;;19.20;74.80;;;;;;5093060;28;20043;-58
2021/09/22 03:37:34;;;;;;;1.40;1.30;;;19.10;74.80;;;;;;5090137;28;20416;-57
2021/09/22 03:40:00;;;;;;;1.48;1.35;;;19.10;74.80;;;;;;5091468;28;20036;-58
2021/09/22 03:42:26;;;;;;;1.40;1.30;;;19.20;74.80;;;;;;5093164;28;20054;-59
2021/09/22 03:44:51;;;;;;;1.25;1.10;;;19.20;74.80;;;;;;5092601;28;20043;-60
2021/09/22 03:47:17;;;;;;;1.45;1.35;;;19.20;74.80;;;;;;5091688;28;20088;-54
2021/09/22 03:49:42;;;;;;;1.30;1.20;;;19.20;74.80;;;;;;5091623;28;20178;-59
2021/09/22 03:52:08;;;;;;;1.17;1.08;;;19.20;74.80;;;;;;5092455;28;20040;-59
2021/09/22 03:54:34;;;;;;;1.20;1.10;;;19.20;74.80;;;;;;5092020;28;20040;-54
2021/09/22 03:56:59;;;;;;;1.40;1.30;;;19.10;74.80;;;;;;5092287;28;20040;-58
2021/09/22 03:59:25;;;;;;;1.30;1.20;;;19.20;74.80;;;;;;5092366;28;20032;-60
2021/09/22 04:01:51;;;;;;;1.23;1.13;;;19.10;74.80;;;;;;5092364;28;20074;-60
2021/09/22 04:04:16;;;;;;;1.10;1.00;;;19.20;74.90;;;;;;5090730;28;20391;-59
2021/09/22 04:06:42;;;;;;;1.50;1.40;;;19.10;74.80;;;;;;5092254;28;20473;-59
2021/09/22 04:09:14;;;;;;;1.55;1.30;;;19.20;74.80;;;;;;5091252;28;20046;-58
2021/09/22 04:11:40;;;;;;;1.10;1.00;;;19.10;74.70;;;;;;5092408;28;20060;-59
2021/09/22 04:14:05;;;;;;;1.30;1.20;;;19.10;74.80;;;;;;5092024;28;20044;-59
2021/09/22 04:16:31;;;;;;;1.20;1.10;;;19.10;74.80;;;;;;5091177;28;20138;-60
2021/09/22 04:18:57;;;;;;;1.50;1.20;;;19.20;75.40;;;;;;5091752;28;20055;-59
2021/09/22 04:21:23;;;;;;;1.30;1.20;;;19.20;74.80;;;;;;5092111;28;20044;-59
2021/09/22 04:23:48;;;;;;;1.58;1.48;;;19.10;74.70;;;;;;5091801;28;20613;-59
2021/09/22 04:26:14;;;;;;;1.33;1.20;;;19.10;74.80;;;;;;5091234;28;20385;-59
2021/09/22 04:28:40;;;;;;;1.55;1.27;;;19.10;74.80;;;;;;5091690;28;20113;-59
2021/09/22 04:31:06;;;;;;;1.50;1.40;;;19.10;74.70;;;;;;5092429;28;20044;-59
2021/09/22 04:33:31;;;;;;;1.30;1.20;;;19.10;74.80;;;;;;5092085;28;20115;-59
2021/09/22 04:35:57;;;;;;;1.05;1.00;;;19.20;74.80;;;;;;5091422;28;20480;-59
2021/09/22 04:38:23;;;;;;;1.40;1.30;;;19.10;74.80;;;;;;5090302;28;20407;-59
2021/09/22 04:40:50;;;;;;;1.30;1.20;;;19.10;74.80;;;;;;5091193;28;20040;-57
2021/09/22 04:43:15;;;;;;;1.45;1.35;;;19.10;74.80;;;;;;5092315;28;20040;-58
2021/09/22 04:45:47;;;;;;;1.20;1.10;;;19.10;74.80;;;;;;5091968;28;20047;-60
2021/09/22 04:48:13;;;;;;;1.10;1.00;;;19.10;74.80;;;;;;5090144;28;20044;-58
2021/09/22 04:50:39;;;;;;;1.30;1.20;;;19.10;74.80;;;;;;5091999;28;20048;-59
2021/09/22 04:53:05;;;;;;;1.58;1.48;;;19.10;74.80;;;;;;5091898;28;20050;-58
2021/09/22 04:55:31;;;;;;;1.33;1.23;;;19.10;74.80;;;;;;5091393;28;20151;-58
2021/09/22 04:57:57;;;;;;;1.50;1.40;;;19.10;74.80;;;;;;5092267;28;20115;-60
2021/09/22 05:00:23;;;;;;;1.23;1.13;;;19.10;74.80;;;;;;5092346;28;20043;-58
2021/09/22 05:02:48;;;;;;;1.48;1.38;;;19.10;74.70;;;;;;5095657;28;20498;-47
2021/09/22 05:05:14;;;;;;;1.75;1.20;;;19.10;74.80;;;;;;5095787;28;20078;-48
2021/09/22 05:07:40;;;;;;;1.48;1.38;;;19.10;74.80;;;;;;5095906;28;20040;-59
2021/09/22 05:10:07;;;;;;;1.35;1.25;;;19.10;74.70;;;;;;5095312;28;20048;-60
2021/09/22 05:12:33;;;;;;;1.33;1.23;;;19.10;74.70;;;;;;5093102;28;20139;-60
2021/09/22 05:14:59;;;;;;;1.15;1.05;;;19.10;74.70;;;;;;5095409;28;20086;-60
2021/09/22 05:17:25;;;;;;;1.45;1.35;;;19.10;74.80;;;;;;5095813;28;20052;-59
2021/09/22 05:19:50;;;;;;;1.40;1.30;;;19.10;74.70;;;;;;5094798;28;20044;-58
2021/09/22 05:22:17;;;;;;;1.35;1.25;;;19.10;74.80;;;;;;5093232;28;20039;-60
2021/09/22 05:24:43;;;;;;;1.30;1.20;;;19.10;74.80;;;;;;5094577;28;20044;-55
2021/09/22 05:27:09;;;;;;;1.13;1.10;;;19.10;74.70;;;;;;5093302;28;20115;-58
2021/09/22 05:29:36;;;;;;;1.35;1.23;;;19.10;75.40;;;;;;5093886;28;20086;-56
2021/09/22 05:32:02;;;;;;;1.30;1.17;;;19.10;74.70;;;;;;5094925;28;20497;-57
2021/09/22 05:34:27;;;;;;;1.35;1.25;;;19.10;74.80;;;;;;5094880;28;20206;-57
2021/09/22 05:36:53;;;;;;;1.77;1.42;;;19.10;74.80;;;;;;5094584;28;20484;-60
2021/09/22 05:39:19;;;;;;;2.08;1.40;;;19.10;74.70;;;;;;5095208;28;20036;-57
2021/09/22 05:41:45;;;;;;;1.30;1.20;;;19.10;74.80;;;;;;5095133;28;20445;-58
2021/09/22 05:44:10;;;;;;;1.35;1.25;;;19.10;74.80;;;;;;5093936;28;20119;-60
2021/09/22 05:46:36;;;;;;;1.00;1.00;;;19.10;74.80;;;;;;5094690;28;20479;-54
2021/09/22 05:49:03;;;;;;;1.30;1.20;;;19.10;74.80;;;;;;5094693;28;20036;-57
2021/09/22 05:51:29;;;;;;;1.30;1.20;;;19.10;74.80;;;;;;5094504;28;20039;-57
2021/09/22 05:53:55;;;;;;;1.30;1.20;;;19.10;74.80;;;;;;5093229;28;20044;-57
2021/09/22 05:56:21;;;;;;;1.67;1.17;;;19.00;74.70;;;;;;5093763;28;20075;-56
2021/09/22 05:58:47;;;;;;;1.50;1.10;;;19.20;74.80;;;;;;5094314;28;20114;-53
2021/09/22 06:01:12;;;;;;;1.25;1.15;;;19.10;74.70;;;;;;5094380;28;20056;-57
2021/09/22 06:03:38;;;;;;;1.40;1.30;;;19.10;74.80;;;;;;5094333;28;20404;-57
2021/09/22 06:06:04;;;;;;;1.15;1.05;;;19.10;74.80;;;;;;5094505;28;20043;-57
2021/09/22 06:08:30;;;;;;;1.25;1.15;;;19.10;74.80;;;;;;5094697;28;20032;-57
2021/09/22 06:10:56;;;;;;;1.48;1.30;;;19.10;74.80;;;;;;5094243;28;20043;-57
2021/09/22 06:13:22;;;;;;;1.40;1.30;;;19.10;74.80;;;;;;5094702;28;20472;-56
2021/09/22 06:15:48;;;;;;;1.23;1.13;;;19.10;74.80;;;;;;5093668;28;20078;-57
2021/09/22 06:18:13;;;;;;;1.15;1.05;;;19.10;74.80;;;;;;5094033;28;20083;-56
2021/09/22 06:20:39;;;;;;;1.20;1.10;;;19.10;74.80;;;;;;5093626;28;20048;-55
2021/09/22 06:23:05;;;;;;;1.55;1.42;;;19.00;74.70;;;;;;5094571;28;20043;-57
2021/09/22 06:25:31;;;;;;;1.50;1.40;;;19.10;74.80;;;;;;5093596;28;20392;-57
2021/09/22 06:27:56;;;;;;;1.88;1.60;;;19.10;74.80;;;;;;5094095;28;20039;-56
2021/09/22 06:30:22;;;;;;;1.23;1.13;;;19.10;74.80;;;;;;5093911;28;20047;-56
2021/09/22 06:32:48;;;;;;;1.60;1.50;;;19.00;74.70;;;;;;5093896;28;20047;-57
2021/09/22 06:35:13;;;;;;;1.90;1.60;;;19.00;74.70;;;;;;5093825;28;20032;-56
2021/09/22 06:37:39;;;;;;;1.73;1.42;;;19.00;74.70;;;;;;5092445;28;20044;-56
2021/09/22 06:40:06;;;;;;;1.70;1.60;;;19.00;74.70;;;;;;5093792;28;20120;-56
2021/09/22 06:42:32;;;;;;;1.20;1.10;;;19.10;74.80;;;;;;5093628;28;20496;-57
2021/09/22 06:44:58;;;;;;;1.42;1.33;;;19.00;74.70;;;;;;5093817;28;20098;-56
2021/09/22 06:47:24;;;;;;;1.50;1.40;;;19.10;74.80;;;;;;5093085;28;20044;-57
2021/09/22 06:49:49;;;;;;;1.52;1.40;;;19.10;74.80;;;;;;5093432;28;20043;-52
2021/09/22 06:52:15;;;;;;;1.40;1.30;;;19.00;74.70;;;;;;5093670;28;20098;-57
2021/09/22 06:54:41;;;;;;;1.90;1.60;;;19.10;74.80;;;;;;5093252;28;20047;-57
2021/09/22 06:57:07;;;;;;;1.58;1.48;;;19.00;74.70;;;;;;5093304;28;20078;-56
2021/09/22 06:59:32;;;;;;;1.88;1.45;;;19.00;74.70;;;;;;5093362;28;20814;-58
2021/09/22 07:01:58;;;;;;;1.42;1.33;;;19.00;75.40;;;;;;5092794;28;20059;-57
2021/09/22 07:04:24;;;;;;;1.40;1.30;;;19.10;74.80;;;;;;5091617;28;20058;-58
2021/09/22 07:06:49;;;;;;;11.15;6.47;;;19.00;74.80;;;;;;5093172;28;20074;-57
2021/09/22 07:09:15;;;;;;;4.57;4.00;;;19.00;74.30;;;;;;5093187;28;20044;-57
2021/09/22 07:11:41;;;;;;;3.95;3.42;;;19.00;75.00;;;;;;5093781;28;20039;-57
2021/09/22 07:14:06;;;;;;;5.60;4.28;;;19.00;74.50;;;;;;5093020;28;20428;-56
2021/09/22 07:16:32;;;;;;;4.97;4.40;;;19.00;74.50;;;;;;5092791;28;20139;-56
2021/09/22 07:18:58;;;;;;;6.82;3.70;;;19.00;74.60;;;;;;5093170;28;20093;-55
2021/09/22 07:21:25;;;;;;;5.00;4.20;;;19.10;74.60;;;;;;5093395;28;20083;-57
2021/09/22 07:23:51;;;;;;;4.20;3.75;;;19.00;74.60;;;;;;5092354;28;20488;-56
2021/09/22 07:26:17;;;;;;;6.20;4.43;;;19.00;74.60;;;;;;5093252;28;20122;-56
2021/09/22 07:28:43;;;;;;;5.53;4.00;;;19.00;74.70;;;;;;5093138;28;20362;-56
2021/09/22 07:31:09;;;;;;;7.78;6.57;;;19.00;74.60;;;;;;5083232;28;20044;-56
2021/09/22 07:33:35;;;;;;;6.20;5.22;;;19.00;74.60;;;;;;5088416;28;20043;-50
2021/09/22 07:36:02;;;;;;;6.18;4.65;;;19.00;74.60;;;;;;5091775;28;20040;-49
2021/09/22 07:38:28;;;;;;;7.63;5.00;;;19.00;74.70;;;;;;5083068;28;20511;-52
2021/09/22 07:40:55;;;;;;;5.97;4.43;;;18.90;74.70;;;;;;5076885;28;20037;-50
2021/09/22 07:43:21;;;;;;;4.68;4.18;;;18.90;74.70;;;;;;5091815;28;20050;-53
2021/09/22 07:45:47;;;;;;;6.82;4.43;;;19.00;74.80;;;;;;5091194;28;20119;-53
2021/09/22 07:48:13;;;;;;;5.70;4.53;;;18.90;74.80;;;;;;5092151;28;20050;-52
2021/09/22 07:50:38;;;;;;;6.03;4.40;;;18.90;74.70;;;;;;5090502;28;20060;-49
2021/09/22 07:53:05;;;;;;;6.70;4.40;;;19.00;74.80;;;;;;5087923;28;20036;-50
2021/09/22 07:55:31;;;;;;;6.22;4.68;;;19.00;74.80;;;;;;5091796;28;20044;-54
2021/09/22 07:57:56;;;;;;;4.70;4.20;;;18.90;74.80;;;;;;5092251;28;20046;-52
2021/09/22 08:00:23;;;;;;;5.70;4.53;;;18.90;74.80;;;;;;5090915;28;20048;-50
2021/09/22 08:02:53;;;;;;;6.32;4.15;;;19.00;74.90;;;;;;5090365;28;20040;-54
2021/09/22 08:05:19;;;;;;;4.57;4.18;;;18.90;74.90;;;;;;5091419;28;20058;-49
2021/09/22 08:07:46;;;;;;;5.00;4.30;;;19.00;74.90;;;;;;5089195;28;20477;-55
2021/09/22 08:10:13;;;;;;;4.95;4.00;;;18.90;74.90;;;;;;5091935;28;20515;-54
2021/09/22 08:12:40;;;;;;;6.10;4.75;;;19.00;74.90;;;;;;5091627;28;20036;-55
2021/09/22 08:15:06;;;;;;;4.68;3.80;;;18.90;74.90;;;;;;5090540;28;20464;-53
2021/09/22 08:17:31;;;;;;;4.35;3.80;;;18.90;74.90;;;;;;5091382;28;20047;-53
2021/09/22 08:19:57;;;;;;;4.75;3.80;;;18.90;74.90;;;;;;5091618;28;20453;-55
2021/09/22 08:22:23;;;;;;;4.07;3.67;;;18.90;74.90;;;;;;5090602;28;20048;-55
2021/09/22 08:24:49;;;;;;;4.55;3.42;;;19.00;74.90;;;;;;5090598;28;20059;-56
2021/09/22 08:27:14;;;;;;;4.55;3.35;;;18.90;74.90;;;;;;5089741;28;20043;-53
2021/09/22 08:29:41;;;;;;;5.03;3.80;;;19.00;75.00;;;;;;5077157;28;20105;-51
2021/09/22 08:32:07;;;;;;;4.20;3.80;;;19.00;74.90;;;;;;5087266;28;20499;-53
2021/09/22 08:34:33;;;;;;;3.70;3.05;;;19.00;75.60;;;;;;5093666;28;20085;-50
2021/09/22 08:36:58;;;;;;;3.83;3.17;;;18.90;74.90;;;;;;5094274;28;20048;-49
2021/09/22 08:39:28;;;;;;;3.85;3.47;;;19.00;75.00;;;;;;5095584;28;20044;-51
2021/09/22 08:41:54;;;;;;;3.40;3.10;;;19.00;75.00;;;;;;5095691;28;20515;-55
2021/09/22 08:44:20;;;;;;;3.88;2.95;;;19.00;75.00;;;;;;5094746;28;20040;-55
2021/09/22 08:46:46;;;;;;;3.58;3.20;;;19.00;75.00;;;;;;5095040;28;20067;-56
2021/09/22 08:49:12;;;;;;;4.07;3.35;;;18.90;75.00;;;;;;5095562;28;20051;-54
2021/09/22 08:51:38;;;;;;;3.75;3.33;;;19.00;75.00;;;;;;5093672;28;20048;-56
2021/09/22 08:54:05;;;;;;;3.50;2.95;;;19.00;75.00;;;;;;5095221;28;20508;-51
2021/09/22 08:56:30;;;;;;;3.13;2.72;;;19.00;75.00;;;;;;5095151;28;20073;-55
2021/09/22 08:58:56;;;;;;;4.57;3.53;;;19.00;75.00;;;;;;5094254;28;20048;-54
2021/09/22 09:01:25;;;;;;;3.63;3.05;;;19.00;75.00;;;;;;5094975;28;20048;-52
2021/09/22 09:03:51;;;;;;;4.55;3.20;;;19.00;75.00;;;;;;5094848;28;20387;-54
2021/09/22 09:06:17;;;;;;;3.72;3.08;;;19.00;75.00;;;;;;5092520;28;20044;-51
2021/09/22 09:08:42;;;;;;;4.05;2.80;;;19.00;75.00;;;;;;5094531;28;20040;-54
2021/09/22 09:11:08;;;;;;;2.90;2.60;;;19.00;75.00;;;;;;5095151;28;20127;-55
2021/09/22 09:13:52;;;;;;;3.83;2.95;;;19.00;75.00;;;;;;5093513;28;20467;-50
2021/09/22 09:16:19;;;;;;;3.72;2.72;;;19.00;75.20;;;;;;5094390;28;20063;-53
2021/09/22 09:18:53;;;;;;;2.90;2.45;;;19.00;75.10;;;;;;5094818;28;20080;-56
2021/09/22 09:21:21;;;;;;;3.40;2.75;;;19.00;75.70;;;;;;5094298;28;20075;-56
2021/09/22 09:23:52;;;;;;;3.38;2.60;;;19.00;75.00;;;;;;5094435;28;20427;-56
2021/09/22 09:26:27;;;;;;;2.72;2.53;;;19.00;75.10;;;;;;5093939;28;20052;-50
2021/09/22 09:28:55;;;;;;;3.42;2.65;;;19.00;75.10;;;;;;5093899;28;20044;-53
2021/09/22 09:31:22;;;;;;;2.90;2.60;;;19.00;75.10;;;;;;5094989;28;20040;-55
2021/09/22 09:33:56;;;;;;;3.65;2.85;;;19.00;75.10;;;;;;5095126;28;20134;-55
2021/09/22 09:36:43;;;;;;;3.28;2.55;;;19.00;75.10;;;;;;5091991;28;20110;-52
2021/09/22 09:39:23;;;;;;;2.75;2.47;;;19.00;75.10;;;;;;5094272;28;20139;-54
2021/09/22 09:41:58;;;;;;;3.72;2.85;;;19.00;75.10;;;;;;5094471;28;20069;-55
2021/09/22 09:44:26;;;;;;;3.95;2.60;;;19.00;75.10;;;;;;5093588;28;20141;-54
2021/09/22 09:46:54;;;;;;;2.92;2.63;;;19.00;75.10;;;;;;5093507;28;20050;-56
2021/09/22 09:49:27;;;;;;;2.67;2.13;;;19.00;75.10;;;;;;5094466;28;20135;-54
2021/09/22 09:51:58;;;;;;;2.75;2.50;;;19.10;75.20;;;;;;5092238;28;20056;-49
2021/09/22 09:54:33;;;;;;;2.88;2.30;;;19.10;75.20;;;;;;5093948;28;20040;-55
2021/09/22 09:57:16;;;;;;;3.17;2.47;;;19.10;75.20;;;;;;5093948;28;20054;-55
2021/09/22 09:59:53;;;;;;;3.25;2.45;;;19.10;75.30;;;;;;5094022;28;20052;-53
2021/09/22 10:02:36;;;;;;;2.70;2.40;;;19.00;75.10;;;;;;5092958;28;20048;-56
2021/09/22 10:05:03;;;;;;;3.58;2.50;;;19.10;75.30;;;;;;5093244;28;20040;-55
2021/09/22 10:07:29;;;;;;;3.13;2.55;;;19.00;75.10;;;;;;5093812;28;20048;-49
2021/09/22 10:09:56;;;;;;;2.85;2.28;;;19.10;75.20;;;;;;5093671;28;20075;-49
2021/09/22 10:12:22;;;;;;;2.53;2.33;;;19.10;75.20;;;;;;5090723;28;20119;-54
2021/09/22 10:14:48;;;;;;;2.20;2.00;;;19.10;75.20;;;;;;5093547;28;20575;-52
2021/09/22 10:17:15;;;;;;;2.97;2.25;;;19.10;75.20;;;;;;5093558;28;20044;-56
2021/09/22 10:19:47;;;;;;;3.15;2.72;;;19.10;75.20;;;;;;5092737;28;20114;-53
2021/09/22 10:22:13;;;;;;;2.40;2.00;;;19.10;75.30;;;;;;5093828;28;20048;-54
2021/09/22 10:24:41;;;;;;;3.15;2.50;;;19.10;75.20;;;;;;5093320;28;20089;-52
2021/09/22 10:27:07;;;;;;;2.50;2.28;;;19.10;75.20;;;;;;5092716;28;20052;-55
2021/09/22 10:29:37;;;;;;;3.28;2.80;;;19.10;75.20;;;;;;5093505;28;20035;-51
2021/09/22 10:32:04;;;;;;;3.58;2.30;;;19.10;75.20;;;;;;5093237;28;20048;-55
2021/09/22 10:34:32;;;;;;;2.70;2.10;;;19.10;75.20;;;;;;5093306;28;20047;-55
2021/09/22 10:36:58;;;;;;;2.55;1.90;;;19.10;75.30;;;;;;5092468;28;20144;-52
2021/09/22 10:39:39;;;;;;;2.35;1.95;;;19.10;75.30;;;;;;5092822;28;20040;-54
2021/09/22 10:42:29;;;;;;;2.33;1.90;;;19.10;75.30;;;;;;5092581;28;20090;-51
2021/09/22 10:45:20;;;;;;;2.55;2.00;;;19.10;75.40;;;;;;5091580;28;20495;-54
2021/09/22 10:47:47;;;;;;;2.25;1.92;;;19.10;75.40;;;;;;5089839;28;20093;-55
2021/09/22 10:50:39;;;;;;;2.63;2.05;;;19.10;75.30;;;;;;5091347;28;20074;-51
2021/09/22 10:53:30;;;;;;;2.30;2.08;;;19.10;75.50;;;;;;5088831;28;20044;-52
2021/09/22 10:56:11;;;;;;;2.75;1.80;;;19.10;75.40;;;;;;5090920;28;20484;-55
2021/09/22 10:58:46;;;;;;;2.20;1.90;;;19.10;75.40;;;;;;5090848;28;20134;-51
2021/09/22 11:01:32;;;;;;;2.70;2.17;;;19.20;75.40;;;;;;5090697;28;20043;-56
2021/09/22 11:04:01;;;;;;;2.28;2.08;;;19.10;75.30;;;;;;5093188;28;20050;-56
2021/09/22 11:06:48;;;;;;;2.38;1.80;;;19.10;75.40;;;;;;5092666;28;20641;-54
2021/09/22 11:09:28;;;;;;;2.80;2.10;;;19.10;75.50;;;;;;5092983;28;20074;-56
2021/09/22 11:14:41;;;;;;;2.40;1.90;;;19.20;75.50;;;;;;5092400;28;20056;-56
2021/09/22 11:17:13;;;;;;;2.60;2.00;;;19.10;75.50;;;;;;5092220;28;20064;-52
2021/09/22 11:19:47;;;;;;;2.35;1.92;;;19.10;75.50;;;;;;5091390;28;20044;-52
2021/09/22 11:22:16;;;;;;;2.70;2.00;;;19.20;75.50;;;;;;5092676;28;20395;-51
2021/09/22 11:24:43;;;;;;;2.30;2.10;;;19.20;75.50;;;;;;5092135;28;20051;-53
2021/09/22 11:27:17;;;;;;;2.00;1.67;;;19.20;75.50;;;;;;5091219;28;20059;-49
2021/09/22 11:29:48;;;;;;;2.08;1.88;;;19.20;75.50;;;;;;5092108;28;20048;-54
2021/09/22 11:32:29;;;;;;;2.38;2.00;;;19.20;75.50;;;;;;5091100;28;20040;-53
2021/09/22 11:35:00;;;;;;;2.03;1.77;;;19.20;75.60;;;;;;5090089;28;20044;-52
2021/09/22 11:37:35;;;;;;;2.15;1.85;;;19.10;75.50;;;;;;5091606;28;20050;-52
2021/09/22 11:40:25;;;;;;;2.30;2.10;;;19.20;75.60;;;;;;5092598;28;20134;-56
2021/09/22 11:42:54;;;;;;;2.00;1.70;;;19.20;75.60;;;;;;5091935;28;20079;-49
2021/09/22 11:45:26;;;;;;;2.28;1.88;;;19.20;75.50;;;;;;5091774;28;20495;-56
2021/09/22 11:47:51;;;;;;;3.63;2.40;;;19.20;75.50;;;;;;5092227;28;20047;-52
2021/09/22 11:50:29;;;;;;;2.25;1.90;;;19.20;75.50;;;;;;5091801;28;20054;-55
2021/09/22 11:52:55;;;;;;;2.13;1.83;;;19.20;75.50;;;;;;5071953;28;20040;-55
2021/09/22 11:55:21;;;;;;;2.35;2.10;;;19.20;75.50;;;;;;5073602;28;20439;-55
2021/09/22 11:57:48;;;;;;;2.42;1.98;;;19.20;75.50;;;;;;5091985;28;20457;-56
2021/09/22 12:00:15;;;;;;;2.70;1.90;;;19.20;75.60;;;;;;5091501;28;20040;-51
2021/09/22 12:02:41;;;;;;;2.35;1.83;;;19.20;75.50;;;;;;5091693;28;20063;-51
2021/09/22 12:05:08;;;;;;;2.97;2.20;;;19.20;75.50;;;;;;5090871;28;20044;-56
2021/09/22 12:07:34;;;;;;;1.95;1.75;;;19.20;75.50;;;;;;5091458;28;20111;-55
2021/09/22 12:10:03;;;;;;;2.03;1.83;;;19.20;75.50;;;;;;5091433;28;20074;-54
2021/09/22 12:12:33;;;;;;;2.38;1.90;;;19.20;75.60;;;;;;5092287;28;20032;-56
2021/09/22 12:15:01;;;;;;;2.17;1.85;;;19.20;75.50;;;;;;5091988;28;20040;-57
2021/09/22 12:17:35;;;;;;;1.80;1.70;;;19.20;75.50;;;;;;5088651;28;20044;-57
2021/09/22 12:20:03;;;;;;;2.33;1.95;;;19.20;75.50;;;;;;5091650;28;20047;-55
2021/09/22 12:22:32;;;;;;;2.15;1.90;;;19.20;75.60;;;;;;5092427;28;20043;-56
2021/09/22 12:24:58;;;;;;;2.30;1.70;;;19.20;75.50;;;;;;5092658;28;20058;-56
2021/09/22 12:27:26;;;;;;;2.58;2.00;;;19.20;75.50;;;;;;5092062;28;20043;-56
2021/09/22 12:29:58;;;;;;;2.17;1.70;;;19.20;75.50;;;;;;5091465;28;20039;-57
2021/09/22 12:32:28;;;;;;;1.88;1.65;;;19.20;75.60;;;;;;5091244;28;20032;-57
2021/09/22 12:34:56;;;;;;;2.10;1.80;;;19.20;75.60;;;;;;5092138;28;20040;-55
2021/09/22 12:37:30;;;;;;;2.13;1.80;;;19.20;75.60;;;;;;5091901;28;20127;-57
2021/09/22 12:40:00;;;;;;;2.33;2.03;;;19.30;75.60;;;;;;5091416;28;20545;-57
2021/09/22 12:42:44;;;;;;;2.10;1.90;;;19.30;75.60;;;;;;5089181;28;20066;-57
2021/09/22 12:45:20;;;;;;;1.77;1.67;;;19.30;75.70;;;;;;5089853;28;20040;-57
2021/09/22 12:47:52;;;;;;;1.92;1.73;;;19.30;75.60;;;;;;5089119;28;20039;-56
2021/09/22 12:50:22;;;;;;;1.67;1.58;;;19.30;75.60;;;;;;5091486;28;20541;-57
2021/09/22 12:52:49;;;;;;;2.58;1.70;;;19.30;75.70;;;;;;5087608;28;20040;-51
2021/09/22 12:55:22;;;;;;;2.22;1.73;;;19.30;75.70;;;;;;5091546;28;20032;-55